createdAt,value
2018-03-11T00:02:17.424Z,13.00
2018-03-11T00:04:45.033Z,12.97
2018-03-11T00:07:13.371Z,12.53
2018-03-11T00:09:41.622Z,12.00
2018-03-11T00:12:09.089Z,12.40
2018-03-11T00:14:37.373Z,11.63
2018-03-11T00:17:04.821Z,11.83
2018-03-11T00:19:33.070Z,12.30
2018-03-11T00:22:00.548Z,11.20
2018-03-11T00:24:28.023Z,11.97
2018-03-11T00:26:56.266Z,10.83
2018-03-11T00:29:24.505Z,10.93
2018-03-11T00:31:51.990Z,11.33
2018-03-11T00:34:19.460Z,10.57
2018-03-11T00:36:46.933Z,12.90
2018-03-11T00:39:15.179Z,11.70
2018-03-11T00:41:42.653Z,11.67
2018-03-11T00:44:10.127Z,12.60
2018-03-11T00:46:38.472Z,13.33
2018-03-11T00:49:05.936Z,12.27
2018-03-11T00:51:33.425Z,12.60
2018-03-11T00:54:01.651Z,13.37
2018-03-11T00:56:29.135Z,13.47
2018-03-11T00:58:56.637Z,13.03
2018-03-11T01:01:24.135Z,12.60
2018-03-11T01:03:51.628Z,11.90
2018-03-11T01:06:19.998Z,12.07
2018-03-11T01:08:48.246Z,13.03
2018-03-11T01:11:15.710Z,12.97
2018-03-11T01:13:43.794Z,12.70
2018-03-11T01:16:12.153Z,12.37
2018-03-11T01:18:39.754Z,12.47
2018-03-11T01:21:07.392Z,14.47
2018-03-11T01:23:34.993Z,13.03
2018-03-11T01:26:02.567Z,12.80
2018-03-11T01:28:30.199Z,12.80
2018-03-11T01:30:58.425Z,12.37
2018-03-11T01:33:25.914Z,14.30
2018-03-11T01:35:54.153Z,14.10
2018-03-11T01:38:21.637Z,12.83
2018-03-11T01:40:49.909Z,13.10
2018-03-11T01:43:17.376Z,12.73
2018-03-11T01:45:45.617Z,12.73
2018-03-11T01:48:13.106Z,13.00
2018-03-11T01:50:41.409Z,13.97
2018-03-11T01:53:09.118Z,13.73
2018-03-11T01:55:36.638Z,13.10
2018-03-11T01:58:04.911Z,12.90
2018-03-11T02:00:32.382Z,13.13
2018-03-11T02:02:59.879Z,14.13
2018-03-11T02:05:27.374Z,13.60
2018-03-11T02:07:55.325Z,12.77
2018-03-11T02:10:22.938Z,13.13
2018-03-11T02:12:51.231Z,14.30
2018-03-11T02:15:18.795Z,13.00
2018-03-11T02:17:47.057Z,13.00
2018-03-11T02:20:14.597Z,13.20
2018-03-11T02:22:42.181Z,12.93
2018-03-11T02:25:09.716Z,12.43
2018-03-11T02:27:38.093Z,12.17
2018-03-11T02:30:05.788Z,11.97
2018-03-11T02:32:33.494Z,13.57
2018-03-11T02:35:01.279Z,12.17
2018-03-11T02:37:28.855Z,12.37
2018-03-11T02:39:56.426Z,12.80
2018-03-11T02:42:24.045Z,12.90
2018-03-11T02:44:51.525Z,12.50
2018-03-11T02:47:19.025Z,12.73
2018-03-11T02:49:46.540Z,12.57
2018-03-11T02:52:14.243Z,12.50
2018-03-11T02:54:41.759Z,13.77
2018-03-11T02:57:09.271Z,12.63
2018-03-11T02:59:37.534Z,12.10
2018-03-11T03:02:05.817Z,13.67
2018-03-11T03:04:34.089Z,14.40
2018-03-11T03:07:02.381Z,13.60
2018-03-11T03:09:30.055Z,13.10
2018-03-11T03:11:57.678Z,13.33
2018-03-11T03:14:25.409Z,12.40
2018-03-11T03:16:52.912Z,13.40
2018-03-11T03:19:21.207Z,13.20
2018-03-11T03:21:48.719Z,14.50
2018-03-11T03:24:16.213Z,14.97
2018-03-11T03:26:44.536Z,12.40
2018-03-11T03:29:12.051Z,13.97
2018-03-11T03:31:40.488Z,13.10
2018-03-11T03:34:07.987Z,14.30
2018-03-11T03:36:36.290Z,13.93
2018-03-11T03:39:04.142Z,14.10
2018-03-11T03:41:31.931Z,14.20
2018-03-11T03:43:59.412Z,14.77
2018-03-11T03:46:27.046Z,14.63
2018-03-11T03:48:54.656Z,15.97
2018-03-11T03:51:22.201Z,13.43
2018-03-11T03:53:49.676Z,14.90
2018-03-11T03:56:18.139Z,15.10
2018-03-11T03:58:45.835Z,14.73
2018-03-11T04:01:14.170Z,15.93
2018-03-11T04:03:42.641Z,14.87
2018-03-11T04:06:10.157Z,14.20
2018-03-11T04:08:37.839Z,14.70
2018-03-11T04:11:05.350Z,14.87
2018-03-11T04:13:33.627Z,14.00
2018-03-11T04:16:01.115Z,14.70
2018-03-11T04:18:28.746Z,14.50
2018-03-11T04:20:56.256Z,15.47
2018-03-11T04:23:23.823Z,15.40
2018-03-11T04:25:51.325Z,15.20
2018-03-11T04:28:19.807Z,16.57
2018-03-11T04:30:48.097Z,15.57
2018-03-11T04:33:15.647Z,14.30
2018-03-11T04:35:43.966Z,15.53
2018-03-11T04:38:11.471Z,15.73
2018-03-11T04:40:39.018Z,14.57
2018-03-11T04:43:06.581Z,14.63
2018-03-11T04:45:34.351Z,15.00
2018-03-11T04:48:02.648Z,16.77
2018-03-11T04:50:30.929Z,15.30
2018-03-11T04:52:59.182Z,14.53
2018-03-11T04:55:27.507Z,15.20
2018-03-11T04:57:54.980Z,15.23
2018-03-11T05:00:22.480Z,15.20
2018-03-11T05:02:50.052Z,14.97
2018-03-11T05:05:18.462Z,15.47
2018-03-11T05:07:46.025Z,15.90
2018-03-11T05:10:13.748Z,14.83
2018-03-11T05:12:42.031Z,16.83
2018-03-11T05:15:10.514Z,15.53
2018-03-11T05:17:38.045Z,16.80
2018-03-11T05:20:06.301Z,15.50
2018-03-11T05:22:33.903Z,15.77
2018-03-11T05:25:02.270Z,15.90
2018-03-11T05:27:30.518Z,15.43
2018-03-11T05:29:58.832Z,14.83
2018-03-11T05:32:26.465Z,15.23
2018-03-11T05:34:54.230Z,17.40
2018-03-11T05:37:22.086Z,16.47
2018-03-11T05:39:49.654Z,15.33
2018-03-11T05:42:17.926Z,16.33
2018-03-11T05:44:46.338Z,16.00
2018-03-11T05:47:14.601Z,16.30
2018-03-11T05:49:42.865Z,14.67
2018-03-11T05:52:10.533Z,14.53
2018-03-11T05:54:38.784Z,16.70
2018-03-11T05:57:07.168Z,14.27
2018-03-11T05:59:34.656Z,15.23
2018-03-11T06:02:02.948Z,15.73
2018-03-11T06:04:30.414Z,13.53
2018-03-11T06:06:57.952Z,15.60
2018-03-11T06:09:26.197Z,15.77
2018-03-11T06:11:53.674Z,14.83
2018-03-11T06:14:21.925Z,15.53
2018-03-11T06:16:49.495Z,14.30
2018-03-11T06:19:16.938Z,15.17
2018-03-11T06:21:44.609Z,15.93
2018-03-11T06:24:12.141Z,15.67
2018-03-11T06:26:39.692Z,14.93
2018-03-11T06:29:07.165Z,14.70
2018-03-11T06:31:34.621Z,15.10
2018-03-11T06:34:02.184Z,14.10
2018-03-11T06:36:30.361Z,16.10
2018-03-11T06:38:57.881Z,15.37
2018-03-11T06:41:26.171Z,15.43
2018-03-11T06:43:53.690Z,15.60
2018-03-11T06:46:21.929Z,15.33
2018-03-11T06:48:49.432Z,14.70
2018-03-11T06:51:16.909Z,14.60
2018-03-11T06:53:44.375Z,15.33
2018-03-11T06:56:11.904Z,15.43
2018-03-11T06:58:39.399Z,14.33
2018-03-11T07:01:06.873Z,14.47
2018-03-11T07:03:34.399Z,15.77
2018-03-11T07:06:01.863Z,15.60
2018-03-11T07:08:29.341Z,17.63
2018-03-11T07:10:56.806Z,15.90
2018-03-11T07:13:24.291Z,15.73
2018-03-11T07:15:52.754Z,15.23
2018-03-11T07:18:20.250Z,14.07
2018-03-11T07:20:47.716Z,15.40
2018-03-11T07:23:15.271Z,15.10
2018-03-11T07:25:42.836Z,14.87
2018-03-11T07:28:10.453Z,14.80
2018-03-11T07:30:38.136Z,13.77
2018-03-11T07:33:05.623Z,14.70
2018-03-11T07:35:33.235Z,13.93
2018-03-11T07:38:01.467Z,16.00
2018-03-11T07:40:28.963Z,13.07
2018-03-11T07:42:56.444Z,14.43
2018-03-11T07:45:24.701Z,15.27
2018-03-11T07:47:52.953Z,15.97
2018-03-11T07:50:20.445Z,14.57
2018-03-11T07:52:48.681Z,15.93
2018-03-11T07:55:16.165Z,12.97
2018-03-11T07:57:44.418Z,13.47
2018-03-11T08:00:12.010Z,15.10
2018-03-11T08:02:40.275Z,13.57
2018-03-11T08:05:07.757Z,12.77
2018-03-11T08:07:36.009Z,12.60
2018-03-11T08:10:04.294Z,13.33
2018-03-11T08:12:32.559Z,12.50
2018-03-11T08:15:00.798Z,11.47
2018-03-11T08:17:28.290Z,12.70
2018-03-11T08:19:55.760Z,12.87
2018-03-11T08:22:24.005Z,13.00
2018-03-11T08:24:51.492Z,14.77
2018-03-11T08:27:19.741Z,13.33
2018-03-11T08:29:47.232Z,14.47
2018-03-11T08:32:15.487Z,14.23
2018-03-11T08:34:43.094Z,15.13
2018-03-11T08:37:10.569Z,15.10
2018-03-11T08:39:38.058Z,14.77
2018-03-11T08:42:05.537Z,15.10
2018-03-11T08:44:33.805Z,14.53
2018-03-11T08:47:02.098Z,13.63
2018-03-11T08:49:29.623Z,13.90
2018-03-11T08:51:57.100Z,13.87
2018-03-11T08:54:25.344Z,13.60
2018-03-11T08:56:52.816Z,13.97
2018-03-11T08:59:21.116Z,13.97
2018-03-11T09:01:48.672Z,14.90
2018-03-11T09:04:16.941Z,15.00
2018-03-11T09:06:45.198Z,15.00
2018-03-11T09:09:12.679Z,13.87
2018-03-11T09:11:41.029Z,14.50
2018-03-11T09:14:10.078Z,14.60
2018-03-11T09:16:37.563Z,13.17
2018-03-11T09:19:05.045Z,14.23
2018-03-11T09:21:33.478Z,14.70
2018-03-11T09:24:01.692Z,14.53
2018-03-11T09:26:30.683Z,12.87
2018-03-11T09:28:58.933Z,12.53
2018-03-11T09:31:26.585Z,12.50
2018-03-11T09:33:54.096Z,12.83
2018-03-11T09:36:22.445Z,12.70
2018-03-11T09:38:49.917Z,11.93
2018-03-11T09:41:17.477Z,12.07
2018-03-11T09:43:44.985Z,13.00
2018-03-11T09:46:12.470Z,13.03
2018-03-11T09:48:39.941Z,12.00
2018-03-11T09:51:07.578Z,12.20
2018-03-11T09:53:35.046Z,10.67
2018-03-11T09:56:02.531Z,11.47
2018-03-11T09:58:30.768Z,11.27
2018-03-11T10:00:58.240Z,11.43
2018-03-11T10:03:25.851Z,10.77
2018-03-11T10:05:53.326Z,10.47
2018-03-11T10:08:20.797Z,10.83
2018-03-11T10:10:48.296Z,10.77
2018-03-11T10:13:15.758Z,9.90
2018-03-11T10:15:43.983Z,9.30
2018-03-11T10:18:11.582Z,8.90
2018-03-11T10:20:39.060Z,9.33
2018-03-11T10:23:07.759Z,9.97
2018-03-11T10:25:35.341Z,9.30
2018-03-11T10:28:02.949Z,8.87
2018-03-11T10:30:30.509Z,9.10
2018-03-11T10:32:58.095Z,8.80
2018-03-11T10:35:25.623Z,9.10
2018-03-11T10:37:53.125Z,7.90
2018-03-11T10:40:20.591Z,7.67
2018-03-11T10:42:48.154Z,7.17
2018-03-11T10:45:15.679Z,6.37
2018-03-11T10:47:44.209Z,6.30
2018-03-11T10:50:11.678Z,6.33
2018-03-11T10:52:39.160Z,6.07
2018-03-11T10:55:07.541Z,6.23
2018-03-11T10:57:35.765Z,6.13
2018-03-11T11:00:03.908Z,5.80
2018-03-11T11:02:36.367Z,6.20
2018-03-11T11:05:04.723Z,5.07
2018-03-11T11:07:32.209Z,4.50
2018-03-11T11:10:00.464Z,4.73
2018-03-11T11:12:27.919Z,4.30
2018-03-11T11:14:55.393Z,4.50
2018-03-11T11:17:23.648Z,3.73
2018-03-11T11:19:51.885Z,3.27
2018-03-11T11:22:19.383Z,2.93
2018-03-11T11:24:46.853Z,2.60
2018-03-11T11:27:15.099Z,3.53
2018-03-11T11:29:42.563Z,2.50
2018-03-11T11:32:10.046Z,2.50
2018-03-11T11:34:38.278Z,2.40
2018-03-11T11:37:05.823Z,2.47
2018-03-11T11:39:33.446Z,2.83
2018-03-11T11:42:01.723Z,2.20
2018-03-11T11:44:30.066Z,2.90
2018-03-11T11:46:57.617Z,3.00
2018-03-11T11:49:25.167Z,2.40
2018-03-11T11:51:52.708Z,2.37
2018-03-11T11:54:20.265Z,2.33
2018-03-11T11:56:47.753Z,2.77
2018-03-11T11:59:15.218Z,2.30
2018-03-11T12:01:42.686Z,2.60
2018-03-11T12:04:10.944Z,2.40
2018-03-11T12:06:38.441Z,2.70
2018-03-11T12:09:06.828Z,2.40
2018-03-11T12:11:34.360Z,2.40
2018-03-11T12:14:02.716Z,2.40
2018-03-11T12:16:30.184Z,2.83
2018-03-11T12:18:59.179Z,2.43
2018-03-11T12:21:27.420Z,2.43
2018-03-11T12:23:55.026Z,2.63
2018-03-11T12:26:22.525Z,2.20
2018-03-11T12:28:50.911Z,2.37
2018-03-11T12:31:18.576Z,2.80
2018-03-11T12:33:46.268Z,2.30
2018-03-11T12:36:13.843Z,2.40
2018-03-11T12:38:41.925Z,1.90
2018-03-11T12:41:10.384Z,2.33
2018-03-11T12:43:38.100Z,2.00
2018-03-11T12:46:05.665Z,1.90
2018-03-11T12:48:33.118Z,2.00
2018-03-11T12:51:00.737Z,2.00
2018-03-11T12:53:28.961Z,2.20
2018-03-11T12:55:56.441Z,2.10
2018-03-11T12:58:23.935Z,2.20
2018-03-11T13:00:52.383Z,2.30
2018-03-11T13:03:19.853Z,1.90
2018-03-11T13:05:47.404Z,2.03
2018-03-11T13:08:14.869Z,2.37
2018-03-11T13:10:42.333Z,2.20
2018-03-11T13:13:10.589Z,1.90
2018-03-11T13:15:39.555Z,2.20
2018-03-11T13:18:07.052Z,1.90
2018-03-11T13:20:47.015Z,1.83
2018-03-11T13:23:15.280Z,1.87
2018-03-11T13:25:42.761Z,2.37
2018-03-11T13:28:22.109Z,2.37
2018-03-11T13:30:55.068Z,1.97
2018-03-11T13:33:36.160Z,2.70
2018-03-11T13:36:04.460Z,1.80
2018-03-11T13:38:43.964Z,1.87
2018-03-11T13:41:11.593Z,1.87
2018-03-11T13:43:39.060Z,1.80
2018-03-11T13:46:18.442Z,1.90
2018-03-11T13:48:45.924Z,2.23
2018-03-11T13:51:13.388Z,2.10
2018-03-11T13:53:52.840Z,1.60
2018-03-11T13:56:21.227Z,1.70
2018-03-11T13:58:52.602Z,2.07
2018-03-11T14:01:20.948Z,1.90
2018-03-11T14:03:48.433Z,1.40
2018-03-11T14:06:16.685Z,2.17
2018-03-11T14:08:44.933Z,1.80
2018-03-11T14:11:12.410Z,1.53
2018-03-11T14:13:40.500Z,1.80
2018-03-11T14:16:07.970Z,1.70
2018-03-11T14:18:36.217Z,2.10
2018-03-11T14:21:03.943Z,1.87
2018-03-11T14:23:31.717Z,1.60
2018-03-11T14:25:59.406Z,1.63
2018-03-11T14:28:27.655Z,1.43
2018-03-11T14:30:55.456Z,1.70
2018-03-11T14:33:23.734Z,1.67
2018-03-11T14:35:51.992Z,1.40
2018-03-11T14:38:19.478Z,1.87
2018-03-11T14:40:47.954Z,1.73
2018-03-11T14:43:15.548Z,1.70
2018-03-11T14:45:43.034Z,1.50
2018-03-11T14:48:10.542Z,1.60
2018-03-11T14:50:38.490Z,1.70
2018-03-11T14:53:05.963Z,1.50
2018-03-11T14:55:33.494Z,1.70
2018-03-11T14:58:01.788Z,1.70
2018-03-11T15:00:29.454Z,1.70
2018-03-11T15:02:57.745Z,1.23
2018-03-11T15:05:25.204Z,1.60
2018-03-11T15:07:52.761Z,1.37
2018-03-11T15:10:20.304Z,1.53
2018-03-11T15:12:48.591Z,1.47
2018-03-11T15:15:16.193Z,1.40
2018-03-11T15:17:43.680Z,1.57
2018-03-11T15:20:12.674Z,1.90
2018-03-11T15:22:40.189Z,2.20
2018-03-11T15:25:07.810Z,1.87
2018-03-11T15:27:36.091Z,1.70
2018-03-11T15:30:03.645Z,1.83
2018-03-11T15:32:31.994Z,1.73
2018-03-11T15:34:59.490Z,1.67
2018-03-11T15:37:27.897Z,1.60
2018-03-11T15:39:55.409Z,1.40
2018-03-11T15:42:22.952Z,1.60
2018-03-11T15:44:51.357Z,1.40
2018-03-11T15:47:19.110Z,1.40
2018-03-11T15:49:47.407Z,1.30
2018-03-11T15:52:15.680Z,1.30
2018-03-11T15:54:43.344Z,1.53
2018-03-11T15:57:11.665Z,1.67
2018-03-11T15:59:39.259Z,1.40
2018-03-11T16:02:06.964Z,1.40
2018-03-11T16:04:34.533Z,1.60
2018-03-11T16:07:02.063Z,1.50
2018-03-11T16:09:29.776Z,1.60
2018-03-11T16:11:57.285Z,1.80
2018-03-11T16:14:25.562Z,1.43
2018-03-11T16:16:53.106Z,1.40
2018-03-11T16:19:20.629Z,1.30
2018-03-11T16:21:48.118Z,1.90
2018-03-11T16:24:28.279Z,1.50
2018-03-11T16:26:43.922Z,1.50
2018-03-11T16:29:11.397Z,1.73
2018-03-11T16:31:39.630Z,1.50
2018-03-11T16:34:07.178Z,1.50
2018-03-11T16:36:34.661Z,2.00
2018-03-11T16:39:02.145Z,1.63
2018-03-11T16:41:29.631Z,1.70
2018-03-11T16:43:57.118Z,1.57
2018-03-11T16:46:24.596Z,2.00
2018-03-11T16:48:52.806Z,1.80
2018-03-11T16:51:21.126Z,2.00
2018-03-11T16:53:48.596Z,2.10
2018-03-11T16:56:16.137Z,2.00
2018-03-11T16:58:43.700Z,1.63
2018-03-11T17:01:11.693Z,2.00
2018-03-11T17:03:40.816Z,2.13
2018-03-11T17:06:09.145Z,1.90
2018-03-11T17:08:36.648Z,2.27
2018-03-11T17:11:04.885Z,2.33
2018-03-11T17:13:32.381Z,2.60
2018-03-11T17:16:00.617Z,2.90
2018-03-11T17:18:28.095Z,2.90
2018-03-11T17:20:55.562Z,3.70
2018-03-11T17:23:23.316Z,4.30
2018-03-11T17:25:50.812Z,4.37
2018-03-11T17:28:19.085Z,4.50
2018-03-11T17:30:46.651Z,4.53
2018-03-11T17:33:14.211Z,3.47
2018-03-11T17:35:41.682Z,4.17
2018-03-11T17:38:09.158Z,3.60
2018-03-11T17:40:36.642Z,3.50
2018-03-11T17:43:04.113Z,3.57
2018-03-11T17:45:31.577Z,4.77
2018-03-11T17:47:59.869Z,4.00
2018-03-11T17:50:28.163Z,3.57
2018-03-11T17:52:55.603Z,3.03
2018-03-11T17:55:23.082Z,2.90
2018-03-11T17:57:50.723Z,3.00
2018-03-11T18:00:19.076Z,3.67
2018-03-11T18:02:46.574Z,3.37
2018-03-11T18:05:14.112Z,3.37
2018-03-11T18:07:41.608Z,3.27
2018-03-11T18:10:09.078Z,3.40
2018-03-11T18:12:36.668Z,3.67
2018-03-11T18:15:04.906Z,3.40
2018-03-11T18:17:32.411Z,2.87
2018-03-11T18:20:00.659Z,2.50
2018-03-11T18:22:28.291Z,2.60
2018-03-11T18:24:55.914Z,2.23
2018-03-11T18:27:24.169Z,3.20
2018-03-11T18:29:52.441Z,3.13
2018-03-11T18:32:19.904Z,3.43
2018-03-11T18:34:47.420Z,3.33
2018-03-11T18:37:14.889Z,3.43
2018-03-11T18:39:43.230Z,3.07
2018-03-11T18:42:10.721Z,4.00
2018-03-11T18:44:38.182Z,3.47
2018-03-11T18:47:05.727Z,3.60
2018-03-11T18:49:33.202Z,3.50
2018-03-11T18:52:00.688Z,4.47
2018-03-11T18:54:28.928Z,4.30
2018-03-11T18:56:56.570Z,3.90
2018-03-11T18:59:24.113Z,3.70
2018-03-11T19:01:51.733Z,3.60
2018-03-11T19:04:19.265Z,3.47
2018-03-11T19:06:46.832Z,3.50
2018-03-11T19:09:14.473Z,3.30
2018-03-11T19:11:42.087Z,3.70
2018-03-11T19:14:10.323Z,4.30
2018-03-11T19:16:37.804Z,3.63
2018-03-11T19:19:05.274Z,4.23
2018-03-11T19:21:33.557Z,3.60
2018-03-11T19:24:01.805Z,3.43
2018-03-11T19:26:29.277Z,2.80
2018-03-11T19:28:57.516Z,2.47
2018-03-11T19:31:25.009Z,3.20
2018-03-11T19:33:52.522Z,3.30
2018-03-11T19:38:53.910Z,2.70
2018-03-11T19:41:21.401Z,2.80
2018-03-11T19:43:49.641Z,2.80
2018-03-11T19:46:17.329Z,2.80
2018-03-11T19:48:45.751Z,3.20
2018-03-11T19:51:13.305Z,3.00
2018-03-11T19:53:41.862Z,3.03
2018-03-11T19:56:10.094Z,3.13
2018-03-11T19:58:37.594Z,2.93
2018-03-11T20:01:05.826Z,3.40
2018-03-11T20:03:33.311Z,3.40
2018-03-11T20:06:01.573Z,3.67
2018-03-11T20:08:29.927Z,3.77
2018-03-11T20:10:57.421Z,3.97
2018-03-11T20:13:25.680Z,4.33
2018-03-11T20:15:53.926Z,4.13
2018-03-11T20:18:21.397Z,5.00
2018-03-11T20:20:48.942Z,4.17
2018-03-11T20:23:16.413Z,3.80
2018-03-11T20:25:43.887Z,3.83
2018-03-11T20:28:11.365Z,4.50
2018-03-11T20:30:39.691Z,4.60
2018-03-11T20:33:07.176Z,4.73
2018-03-11T20:35:35.558Z,5.20
2018-03-11T20:38:03.037Z,5.50
2018-03-11T20:40:31.318Z,4.90
2018-03-11T20:42:59.673Z,4.77
2018-03-11T20:45:27.407Z,4.63
2018-03-11T20:47:54.876Z,5.70
2018-03-11T20:50:22.375Z,4.73
2018-03-11T20:52:50.635Z,5.40
2018-03-11T20:55:18.138Z,4.50
2018-03-11T20:57:45.654Z,4.87
2018-03-11T21:00:13.888Z,4.83
2018-03-11T21:02:41.383Z,5.20
2018-03-11T21:05:09.748Z,4.90
2018-03-11T21:07:37.261Z,5.03
2018-03-11T21:10:04.763Z,4.90
2018-03-11T21:12:32.229Z,4.57
2018-03-11T21:14:59.690Z,4.87
2018-03-11T21:17:27.940Z,4.97
2018-03-11T21:19:55.406Z,5.07
2018-03-11T21:22:22.956Z,4.60
2018-03-11T21:24:50.460Z,4.83
2018-03-11T21:27:18.713Z,4.70
2018-03-11T21:29:46.271Z,4.50
2018-03-11T21:32:14.529Z,4.73
2018-03-11T21:34:41.995Z,5.10
2018-03-11T21:37:09.476Z,4.90
2018-03-11T21:39:37.705Z,4.77
2018-03-11T21:42:05.189Z,4.20
2018-03-11T21:44:32.666Z,4.23
2018-03-11T21:47:00.943Z,4.67
2018-03-11T21:49:29.273Z,4.70
2018-03-11T21:51:56.766Z,4.37
2018-03-11T21:54:25.764Z,4.37
2018-03-11T21:56:54.044Z,4.77
2018-03-11T21:59:22.322Z,4.50
2018-03-11T22:01:50.538Z,4.20
2018-03-11T22:04:18.036Z,4.23
2018-03-11T22:06:45.496Z,4.77
2018-03-11T22:09:13.747Z,4.40
2018-03-11T22:11:41.216Z,4.40
2018-03-11T22:14:08.800Z,4.10
2018-03-11T22:16:37.037Z,5.10
2018-03-11T22:19:04.667Z,4.50
2018-03-11T22:21:32.141Z,4.43
2018-03-11T22:23:59.606Z,4.73
2018-03-11T22:26:27.164Z,4.70
2018-03-11T22:28:54.657Z,4.47
2018-03-11T22:31:22.164Z,4.97
2018-03-11T22:33:49.626Z,5.30
2018-03-11T22:36:17.108Z,4.53
2018-03-11T22:38:44.572Z,5.17
2018-03-11T22:41:12.041Z,4.97
2018-03-11T22:43:41.226Z,5.23
2018-03-11T22:46:08.742Z,5.60
2018-03-11T22:48:36.232Z,4.73
2018-03-11T22:51:03.702Z,5.23
2018-03-11T22:53:31.173Z,5.00
2018-03-11T22:55:59.430Z,5.47
2018-03-11T22:58:26.888Z,5.57
2018-03-11T23:00:54.374Z,5.83
2018-03-11T23:03:22.602Z,5.50
2018-03-11T23:05:50.093Z,5.60
2018-03-11T23:08:18.410Z,5.47
2018-03-11T23:10:45.808Z,5.63
2018-03-11T23:13:13.360Z,5.77
2018-03-11T23:15:40.833Z,5.97
2018-03-11T23:18:09.154Z,5.67
2018-03-11T23:20:36.620Z,5.33
2018-03-11T23:23:04.216Z,5.73
2018-03-11T23:25:31.673Z,5.40
2018-03-11T23:27:59.154Z,5.60
2018-03-11T23:30:27.399Z,5.73
2018-03-11T23:32:54.975Z,5.57
2018-03-11T23:35:23.210Z,5.50
2018-03-11T23:37:50.765Z,5.93
2018-03-11T23:40:18.244Z,5.77
2018-03-11T23:42:46.473Z,5.80
2018-03-11T23:45:13.954Z,6.30
2018-03-11T23:47:41.482Z,5.80
2018-03-11T23:50:09.050Z,5.13
2018-03-11T23:52:37.276Z,5.63
2018-03-11T23:55:04.750Z,5.00
2018-03-11T23:57:32.217Z,5.60
